Airfield :
LOGIN :

Register | Disclaimer

   EN    FR    IT 

 










Legend :    VFR   Marginal VFR   IFR   Intensive IFR   Very Intensive IFR
Visi :
Ceiling :
>= 8 km
>= 3000ft
5 to 8 km
1000 to 3000 ft
1500m to 5 km
500 to 1000 ft
800 to 1500m
200 to 500 ft
< 800m
< 200 ft
Symbols :   Thunderstorms  Fog  Heavy snow  Heavy precipitations  Wind > 20 kt
SIGMETs :     Misc.  Thunderstorms  Icing  Turbulence  Mountain Waves  Volcanic Ashes






- Airport Elevation : 784 ft
- IATA code : TZL


LQTZ - Tuzla

CURRENT METAR :
  • 021300Z VRB02KT 6000 BKN012 BKN025 05/05 Q1020

EXPIRED METARs :
  • 021230Z VRB01KT 6000 BKN012 BKN025 05/05 Q1020
  • 021200Z VRB02KT 6000 BKN012 BKN025 05/05 Q1020
  • 021130Z VRB02KT 7000 SCT009 BKN025 05/05 Q1020
  • 021100Z VRB02KT 6000 BKN008 BKN023 05/05 Q1020
  • 021030Z VRB02KT 6000 BKN007 OVC020 04/04 Q1020

TAF AMD TAF LQTZ
Valid from the 02 at 12:00 until the 03 at 12:00 UTC


021210Z 0212/0312 VRB02KT 7000 SCT012 SCT030 TX06/0213Z TN01/0306Z
PROB40
TEMPO 0212/0219 BKN010 BKN025
TEMPO 0219/0309 3000 BR
PROB30
TEMPO 0300/0308 0300 FG BKN002



MET'MAP, your aeronautical weather chart ! - Copyright ORBIFLY December 2007 - Disclaimer

ORBIFLY MET'MAP TEAM :

Programming & Development : Alexandra Zaïnal
Original concept : Baudouin d'Aumeries
Technical & hardware support : Manuel Goepfert
Assistance : Marc-Olivier Méhu




SOURCES & CREDITS :

   NOAA